sensor_id;sensor_type;location;lat;lon;timestamp;temperature;humidity
43920;DHT22;29578;51.946;5.874;2024-03-17T00:00:20;5.50;85.00
43920;DHT22;29578;51.946;5.874;2024-03-17T00:02:46;5.50;85.00
43920;DHT22;29578;51.946;5.874;2024-03-17T00:05:13;5.50;84.90
43920;DHT22;29578;51.946;5.874;2024-03-17T00:07:40;5.50;85.00
43920;DHT22;29578;51.946;5.874;2024-03-17T00:10:06;5.50;85.00
43920;DHT22;29578;51.946;5.874;2024-03-17T00:12:33;5.50;85.00
43920;DHT22;29578;51.946;5.874;2024-03-17T00:14:59;5.50;85.00
43920;DHT22;29578;51.946;5.874;2024-03-17T00:17:25;5.50;85.00
43920;DHT22;29578;51.946;5.874;2024-03-17T00:19:54;5.50;85.00
43920;DHT22;29578;51.946;5.874;2024-03-17T00:22:19;5.50;85.00
43920;DHT22;29578;51.946;5.874;2024-03-17T00:24:49;5.50;85.00
43920;DHT22;29578;51.946;5.874;2024-03-17T00:27:15;5.50;85.00
43920;DHT22;29578;51.946;5.874;2024-03-17T00:29:41;5.50;85.70
43920;DHT22;29578;51.946;5.874;2024-03-17T00:32:07;5.50;85.10
43920;DHT22;29578;51.946;5.874;2024-03-17T00:34:32;5.50;85.10
43920;DHT22;29578;51.946;5.874;2024-03-17T00:36:58;5.50;85.10
43920;DHT22;29578;51.946;5.874;2024-03-17T00:39:25;5.50;85.20
43920;DHT22;29578;51.946;5.874;2024-03-17T00:41:51;5.50;85.30
43920;DHT22;29578;51.946;5.874;2024-03-17T00:44:17;5.50;85.30
43920;DHT22;29578;51.946;5.874;2024-03-17T00:46:43;5.50;85.30
43920;DHT22;29578;51.946;5.874;2024-03-17T00:49:09;5.50;85.30
43920;DHT22;29578;51.946;5.874;2024-03-17T00:51:36;5.50;85.40
43920;DHT22;29578;51.946;5.874;2024-03-17T00:54:02;5.50;85.40
43920;DHT22;29578;51.946;5.874;2024-03-17T00:56:28;5.50;85.50
43920;DHT22;29578;51.946;5.874;2024-03-17T00:58:53;5.50;85.50
43920;DHT22;29578;51.946;5.874;2024-03-17T01:01:19;5.50;85.60
43920;DHT22;29578;51.946;5.874;2024-03-17T01:03:46;5.40;85.60
43920;DHT22;29578;51.946;5.874;2024-03-17T01:06:11;5.40;85.60
43920;DHT22;29578;51.946;5.874;2024-03-17T01:08:37;5.40;85.60
43920;DHT22;29578;51.946;5.874;2024-03-17T01:11:03;5.40;85.60
43920;DHT22;29578;51.946;5.874;2024-03-17T01:13:29;5.40;85.70
43920;DHT22;29578;51.946;5.874;2024-03-17T01:15:54;5.40;85.70
43920;DHT22;29578;51.946;5.874;2024-03-17T01:18:21;5.40;85.80
43920;DHT22;29578;51.946;5.874;2024-03-17T01:20:46;5.40;85.90
43920;DHT22;29578;51.946;5.874;2024-03-17T01:23:12;5.40;85.90
43920;DHT22;29578;51.946;5.874;2024-03-17T01:25:39;5.40;85.90
43920;DHT22;29578;51.946;5.874;2024-03-17T01:28:05;5.40;86.00
43920;DHT22;29578;51.946;5.874;2024-03-17T01:30:31;5.40;86.00
43920;DHT22;29578;51.946;5.874;2024-03-17T01:32:58;5.40;86.10
43920;DHT22;29578;51.946;5.874;2024-03-17T01:35:25;5.40;86.00
43920;DHT22;29578;51.946;5.874;2024-03-17T01:37:51;5.40;86.00
43920;DHT22;29578;51.946;5.874;2024-03-17T01:40:17;5.40;86.10
43920;DHT22;29578;51.946;5.874;2024-03-17T01:42:43;5.30;86.00
43920;DHT22;29578;51.946;5.874;2024-03-17T01:45:28;5.40;86.10
43920;DHT22;29578;51.946;5.874;2024-03-17T01:47:55;5.30;86.10
43920;DHT22;29578;51.946;5.874;2024-03-17T01:50:24;5.40;86.10
43920;DHT22;29578;51.946;5.874;2024-03-17T01:52:59;5.40;86.10
43920;DHT22;29578;51.946;5.874;2024-03-17T01:55:26;5.30;86.20
43920;DHT22;29578;51.946;5.874;2024-03-17T01:57:53;5.40;86.20
43920;DHT22;29578;51.946;5.874;2024-03-17T02:00:19;5.30;86.20
43920;DHT22;29578;51.946;5.874;2024-03-17T02:02:45;5.30;86.20
43920;DHT22;29578;51.946;5.874;2024-03-17T02:05:11;5.30;86.20
43920;DHT22;29578;51.946;5.874;2024-03-17T02:07:37;5.30;86.20
43920;DHT22;29578;51.946;5.874;2024-03-17T02:10:03;5.30;86.20
43920;DHT22;29578;51.946;5.874;2024-03-17T02:12:30;5.30;86.30
43920;DHT22;29578;51.946;5.874;2024-03-17T02:14:58;5.30;86.30
43920;DHT22;29578;51.946;5.874;2024-03-17T02:17:24;5.30;86.30
43920;DHT22;29578;51.946;5.874;2024-03-17T02:19:51;5.40;86.40
43920;DHT22;29578;51.946;5.874;2024-03-17T02:22:17;5.30;86.40
43920;DHT22;29578;51.946;5.874;2024-03-17T02:24:44;5.20;86.30
43920;DHT22;29578;51.946;5.874;2024-03-17T02:27:10;5.30;86.50
43920;DHT22;29578;51.946;5.874;2024-03-17T02:29:36;5.20;86.50
43920;DHT22;29578;51.946;5.874;2024-03-17T02:32:03;5.20;86.50
43920;DHT22;29578;51.946;5.874;2024-03-17T02:34:36;5.20;86.60
43920;DHT22;29578;51.946;5.874;2024-03-17T02:37:04;5.20;86.60
43920;DHT22;29578;51.946;5.874;2024-03-17T02:39:30;5.20;86.70
43920;DHT22;29578;51.946;5.874;2024-03-17T02:42:00;5.20;86.60
43920;DHT22;29578;51.946;5.874;2024-03-17T02:44:26;5.20;86.70
43920;DHT22;29578;51.946;5.874;2024-03-17T02:46:52;5.10;86.60
43920;DHT22;29578;51.946;5.874;2024-03-17T02:49:18;5.20;86.70
43920;DHT22;29578;51.946;5.874;2024-03-17T02:51:44;5.30;86.70
43920;DHT22;29578;51.946;5.874;2024-03-17T02:54:10;5.20;86.60
43920;DHT22;29578;51.946;5.874;2024-03-17T02:56:35;5.30;86.70
43920;DHT22;29578;51.946;5.874;2024-03-17T02:59:01;5.30;86.60
43920;DHT22;29578;51.946;5.874;2024-03-17T03:01:27;5.30;86.50
43920;DHT22;29578;51.946;5.874;2024-03-17T03:03:52;5.30;86.50
43920;DHT22;29578;51.946;5.874;2024-03-17T03:06:18;5.40;86.60
43920;DHT22;29578;51.946;5.874;2024-03-17T03:08:45;5.30;86.50
43920;DHT22;29578;51.946;5.874;2024-03-17T03:11:15;5.50;86.60
43920;DHT22;29578;51.946;5.874;2024-03-17T03:13:42;5.40;86.50
43920;DHT22;29578;51.946;5.874;2024-03-17T03:16:11;5.40;86.50
43920;DHT22;29578;51.946;5.874;2024-03-17T03:18:37;5.40;86.50
43920;DHT22;29578;51.946;5.874;2024-03-17T03:21:04;5.50;86.50
43920;DHT22;29578;51.946;5.874;2024-03-17T03:23:31;5.50;86.50
43920;DHT22;29578;51.946;5.874;2024-03-17T03:25:57;5.50;86.50
43920;DHT22;29578;51.946;5.874;2024-03-17T03:28:24;5.50;86.40
43920;DHT22;29578;51.946;5.874;2024-03-17T03:30:50;5.60;86.40
43920;DHT22;29578;51.946;5.874;2024-03-17T03:33:19;5.60;86.40
43920;DHT22;29578;51.946;5.874;2024-03-17T03:35:45;5.60;86.40
43920;DHT22;29578;51.946;5.874;2024-03-17T03:38:11;5.60;86.30
43920;DHT22;29578;51.946;5.874;2024-03-17T03:40:40;5.70;86.40
43920;DHT22;29578;51.946;5.874;2024-03-17T03:43:06;5.70;86.30
43920;DHT22;29578;51.946;5.874;2024-03-17T03:45:31;5.70;86.30
43920;DHT22;29578;51.946;5.874;2024-03-17T03:47:57;5.70;86.30
43920;DHT22;29578;51.946;5.874;2024-03-17T03:50:23;5.80;86.30
43920;DHT22;29578;51.946;5.874;2024-03-17T03:52:48;5.80;86.30
43920;DHT22;29578;51.946;5.874;2024-03-17T03:55:16;5.90;86.30
43920;DHT22;29578;51.946;5.874;2024-03-17T03:57:43;5.80;86.30
43920;DHT22;29578;51.946;5.874;2024-03-17T04:00:14;5.80;86.30
43920;DHT22;29578;51.946;5.874;2024-03-17T04:02:42;5.90;86.30
43920;DHT22;29578;51.946;5.874;2024-03-17T04:05:09;5.90;86.40
43920;DHT22;29578;51.946;5.874;2024-03-17T04:07:35;5.90;86.30
43920;DHT22;29578;51.946;5.874;2024-03-17T04:10:02;5.90;86.30
43920;DHT22;29578;51.946;5.874;2024-03-17T04:12:28;6.00;86.30
43920;DHT22;29578;51.946;5.874;2024-03-17T04:14:57;6.00;86.30
43920;DHT22;29578;51.946;5.874;2024-03-17T04:17:23;6.00;86.30
43920;DHT22;29578;51.946;5.874;2024-03-17T04:19:51;6.00;86.30
43920;DHT22;29578;51.946;5.874;2024-03-17T04:22:17;6.00;86.30
43920;DHT22;29578;51.946;5.874;2024-03-17T04:24:45;6.00;86.30
43920;DHT22;29578;51.946;5.874;2024-03-17T04:27:11;6.10;86.40
43920;DHT22;29578;51.946;5.874;2024-03-17T04:29:37;6.10;86.30
43920;DHT22;29578;51.946;5.874;2024-03-17T04:32:03;6.10;86.30
43920;DHT22;29578;51.946;5.874;2024-03-17T04:34:31;6.10;86.30
43920;DHT22;29578;51.946;5.874;2024-03-17T04:36:57;6.20;86.40
43920;DHT22;29578;51.946;5.874;2024-03-17T04:39:23;6.20;86.30
43920;DHT22;29578;51.946;5.874;2024-03-17T04:41:49;6.20;86.30
43920;DHT22;29578;51.946;5.874;2024-03-17T04:44:16;6.20;86.40
43920;DHT22;29578;51.946;5.874;2024-03-17T04:46:41;6.20;86.40
43920;DHT22;29578;51.946;5.874;2024-03-17T04:49:07;6.20;86.40
43920;DHT22;29578;51.946;5.874;2024-03-17T04:51:34;6.20;86.40
43920;DHT22;29578;51.946;5.874;2024-03-17T04:54:01;6.20;86.50
43920;DHT22;29578;51.946;5.874;2024-03-17T04:56:32;6.30;86.60
43920;DHT22;29578;51.946;5.874;2024-03-17T04:58:58;6.20;86.50
43920;DHT22;29578;51.946;5.874;2024-03-17T05:01:25;6.20;86.50
43920;DHT22;29578;51.946;5.874;2024-03-17T05:03:51;6.20;86.60
43920;DHT22;29578;51.946;5.874;2024-03-17T05:06:17;6.20;86.60
43920;DHT22;29578;51.946;5.874;2024-03-17T05:08:43;6.20;86.70
43920;DHT22;29578;51.946;5.874;2024-03-17T05:11:09;6.10;86.70
43920;DHT22;29578;51.946;5.874;2024-03-17T05:13:36;6.10;86.80
43920;DHT22;29578;51.946;5.874;2024-03-17T05:16:04;6.20;86.90
43920;DHT22;29578;51.946;5.874;2024-03-17T05:18:30;6.10;86.90
43920;DHT22;29578;51.946;5.874;2024-03-17T05:21:00;6.10;86.90
43920;DHT22;29578;51.946;5.874;2024-03-17T05:23:28;6.10;87.00
43920;DHT22;29578;51.946;5.874;2024-03-17T05:25:55;6.10;87.00
43920;DHT22;29578;51.946;5.874;2024-03-17T05:28:22;6.10;87.00
43920;DHT22;29578;51.946;5.874;2024-03-17T05:30:48;6.10;87.10
43920;DHT22;29578;51.946;5.874;2024-03-17T05:33:14;6.10;87.20
43920;DHT22;29578;51.946;5.874;2024-03-17T05:35:39;6.10;87.20
43920;DHT22;29578;51.946;5.874;2024-03-17T05:38:05;6.10;87.20
43920;DHT22;29578;51.946;5.874;2024-03-17T05:40:35;6.10;87.20
43920;DHT22;29578;51.946;5.874;2024-03-17T05:43:06;6.00;87.20
43920;DHT22;29578;51.946;5.874;2024-03-17T05:45:32;6.10;87.20
43920;DHT22;29578;51.946;5.874;2024-03-17T05:47:58;6.10;87.30
43920;DHT22;29578;51.946;5.874;2024-03-17T05:50:23;6.10;87.20
43920;DHT22;29578;51.946;5.874;2024-03-17T05:52:49;6.20;87.30
43920;DHT22;29578;51.946;5.874;2024-03-17T05:55:16;6.20;87.30
43920;DHT22;29578;51.946;5.874;2024-03-17T05:57:42;6.10;87.30
43920;DHT22;29578;51.946;5.874;2024-03-17T06:00:08;6.10;87.30
43920;DHT22;29578;51.946;5.874;2024-03-17T06:02:34;6.10;87.30
43920;DHT22;29578;51.946;5.874;2024-03-17T06:05:00;6.20;87.30
43920;DHT22;29578;51.946;5.874;2024-03-17T06:07:29;6.10;87.30
43920;DHT22;29578;51.946;5.874;2024-03-17T06:09:56;6.20;87.30
43920;DHT22;29578;51.946;5.874;2024-03-17T06:12:22;6.10;87.30
43920;DHT22;29578;51.946;5.874;2024-03-17T06:14:47;6.20;87.30
43920;DHT22;29578;51.946;5.874;2024-03-17T06:17:14;6.20;87.30
43920;DHT22;29578;51.946;5.874;2024-03-17T06:19:40;6.20;87.30
43920;DHT22;29578;51.946;5.874;2024-03-17T06:22:06;6.30;87.30
43920;DHT22;29578;51.946;5.874;2024-03-17T06:24:32;6.20;87.20
43920;DHT22;29578;51.946;5.874;2024-03-17T06:26:58;6.40;87.30
43920;DHT22;29578;51.946;5.874;2024-03-17T06:29:23;6.40;87.30
43920;DHT22;29578;51.946;5.874;2024-03-17T06:31:49;6.40;87.20
43920;DHT22;29578;51.946;5.874;2024-03-17T06:34:15;6.40;87.20
43920;DHT22;29578;51.946;5.874;2024-03-17T06:36:41;6.50;87.20
43920;DHT22;29578;51.946;5.874;2024-03-17T06:39:07;6.50;87.20
43920;DHT22;29578;51.946;5.874;2024-03-17T06:41:33;6.60;87.20
43920;DHT22;29578;51.946;5.874;2024-03-17T06:43:59;6.60;87.10
43920;DHT22;29578;51.946;5.874;2024-03-17T06:46:24;6.70;86.90
43920;DHT22;29578;51.946;5.874;2024-03-17T06:48:50;6.80;86.90
43920;DHT22;29578;51.946;5.874;2024-03-17T06:51:17;6.80;86.80
43920;DHT22;29578;51.946;5.874;2024-03-17T06:53:42;6.90;86.70
43920;DHT22;29578;51.946;5.874;2024-03-17T06:56:08;7.00;86.60
43920;DHT22;29578;51.946;5.874;2024-03-17T06:58:34;7.10;86.50
43920;DHT22;29578;51.946;5.874;2024-03-17T07:01:01;7.20;86.40
43920;DHT22;29578;51.946;5.874;2024-03-17T07:03:30;7.20;86.20
43920;DHT22;29578;51.946;5.874;2024-03-17T07:05:57;7.30;86.20
43920;DHT22;29578;51.946;5.874;2024-03-17T07:08:23;7.30;86.10
43920;DHT22;29578;51.946;5.874;2024-03-17T07:10:57;7.40;86.10
43920;DHT22;29578;51.946;5.874;2024-03-17T07:13:23;7.40;86.60
43920;DHT22;29578;51.946;5.874;2024-03-17T07:15:53;7.50;86.00
43920;DHT22;29578;51.946;5.874;2024-03-17T07:18:18;7.60;86.00
43920;DHT22;29578;51.946;5.874;2024-03-17T07:20:44;7.60;86.00
43920;DHT22;29578;51.946;5.874;2024-03-17T07:23:12;7.60;85.90
43920;DHT22;29578;51.946;5.874;2024-03-17T07:25:37;7.60;85.90
43920;DHT22;29578;51.946;5.874;2024-03-17T07:28:03;7.70;85.90
43920;DHT22;29578;51.946;5.874;2024-03-17T07:30:29;7.80;85.90
43920;DHT22;29578;51.946;5.874;2024-03-17T07:32:55;7.80;85.90
43920;DHT22;29578;51.946;5.874;2024-03-17T07:35:21;7.80;85.80
43920;DHT22;29578;51.946;5.874;2024-03-17T07:37:47;7.90;85.80
43920;DHT22;29578;51.946;5.874;2024-03-17T07:40:12;7.90;85.80
43920;DHT22;29578;51.946;5.874;2024-03-17T07:42:38;8.10;85.80
43920;DHT22;29578;51.946;5.874;2024-03-17T07:45:04;8.10;85.70
43920;DHT22;29578;51.946;5.874;2024-03-17T07:47:32;8.20;85.60
43920;DHT22;29578;51.946;5.874;2024-03-17T07:50:03;8.40;85.50
43920;DHT22;29578;51.946;5.874;2024-03-17T07:52:31;8.50;85.30
43920;DHT22;29578;51.946;5.874;2024-03-17T07:54:57;8.60;85.00
43920;DHT22;29578;51.946;5.874;2024-03-17T07:57:22;8.70;84.90
43920;DHT22;29578;51.946;5.874;2024-03-17T07:59:51;8.80;84.80
43920;DHT22;29578;51.946;5.874;2024-03-17T08:02:17;8.90;84.70
43920;DHT22;29578;51.946;5.874;2024-03-17T08:04:43;9.00;84.50
43920;DHT22;29578;51.946;5.874;2024-03-17T08:07:10;9.10;84.40
43920;DHT22;29578;51.946;5.874;2024-03-17T08:09:36;9.20;84.40
43920;DHT22;29578;51.946;5.874;2024-03-17T08:12:02;9.30;84.30
43920;DHT22;29578;51.946;5.874;2024-03-17T08:14:30;9.30;84.20
43920;DHT22;29578;51.946;5.874;2024-03-17T08:16:56;9.50;84.20
43920;DHT22;29578;51.946;5.874;2024-03-17T08:19:22;9.60;84.10
43920;DHT22;29578;51.946;5.874;2024-03-17T08:21:47;9.60;83.90
43920;DHT22;29578;51.946;5.874;2024-03-17T08:24:13;9.70;83.80
43920;DHT22;29578;51.946;5.874;2024-03-17T08:26:39;9.80;83.60
43920;DHT22;29578;51.946;5.874;2024-03-17T08:29:06;9.90;83.50
43920;DHT22;29578;51.946;5.874;2024-03-17T08:31:32;10.00;83.40
43920;DHT22;29578;51.946;5.874;2024-03-17T08:33:58;10.20;83.40
43920;DHT22;29578;51.946;5.874;2024-03-17T08:36:24;10.20;83.90
43920;DHT22;29578;51.946;5.874;2024-03-17T08:38:50;10.20;83.10
43920;DHT22;29578;51.946;5.874;2024-03-17T08:41:16;10.30;83.10
43920;DHT22;29578;51.946;5.874;2024-03-17T08:43:42;10.40;83.10
43920;DHT22;29578;51.946;5.874;2024-03-17T08:46:09;10.40;82.90
43920;DHT22;29578;51.946;5.874;2024-03-17T08:48:37;10.40;82.90
43920;DHT22;29578;51.946;5.874;2024-03-17T08:51:05;10.40;82.90
43920;DHT22;29578;51.946;5.874;2024-03-17T08:53:32;10.40;82.90
43920;DHT22;29578;51.946;5.874;2024-03-17T08:55:58;10.50;83.10
43920;DHT22;29578;51.946;5.874;2024-03-17T08:58:25;10.60;83.20
43920;DHT22;29578;51.946;5.874;2024-03-17T09:00:51;10.50;83.10
43920;DHT22;29578;51.946;5.874;2024-03-17T09:03:17;10.60;83.10
43920;DHT22;29578;51.946;5.874;2024-03-17T09:05:45;10.60;83.10
43920;DHT22;29578;51.946;5.874;2024-03-17T09:08:17;10.60;83.10
43920;DHT22;29578;51.946;5.874;2024-03-17T09:10:44;10.60;83.10
43920;DHT22;29578;51.946;5.874;2024-03-17T09:13:15;10.60;83.10
43920;DHT22;29578;51.946;5.874;2024-03-17T09:15:53;10.70;83.10
43920;DHT22;29578;51.946;5.874;2024-03-17T09:18:20;10.70;83.10
43920;DHT22;29578;51.946;5.874;2024-03-17T09:20:46;10.80;83.10
43920;DHT22;29578;51.946;5.874;2024-03-17T09:23:12;10.80;83.00
43920;DHT22;29578;51.946;5.874;2024-03-17T09:25:38;10.90;83.00
43920;DHT22;29578;51.946;5.874;2024-03-17T09:28:04;11.00;82.90
43920;DHT22;29578;51.946;5.874;2024-03-17T09:30:29;11.10;82.80
43920;DHT22;29578;51.946;5.874;2024-03-17T09:32:55;11.10;82.60
43920;DHT22;29578;51.946;5.874;2024-03-17T09:35:21;11.20;82.60
43920;DHT22;29578;51.946;5.874;2024-03-17T09:37:47;11.30;82.50
43920;DHT22;29578;51.946;5.874;2024-03-17T09:40:14;11.30;82.30
43920;DHT22;29578;51.946;5.874;2024-03-17T09:42:41;11.30;82.30
43920;DHT22;29578;51.946;5.874;2024-03-17T09:45:10;11.40;82.40
43920;DHT22;29578;51.946;5.874;2024-03-17T09:47:36;11.40;82.40
43920;DHT22;29578;51.946;5.874;2024-03-17T09:50:02;11.40;82.40
43920;DHT22;29578;51.946;5.874;2024-03-17T09:52:29;11.50;82.40
43920;DHT22;29578;51.946;5.874;2024-03-17T09:55:00;11.40;82.30
43920;DHT22;29578;51.946;5.874;2024-03-17T09:57:26;11.60;82.30
43920;DHT22;29578;51.946;5.874;2024-03-17T09:59:53;11.60;82.20
43920;DHT22;29578;51.946;5.874;2024-03-17T10:02:20;11.60;82.00
43920;DHT22;29578;51.946;5.874;2024-03-17T10:04:47;11.70;82.00
43920;DHT22;29578;51.946;5.874;2024-03-17T10:07:13;11.70;81.90
43920;DHT22;29578;51.946;5.874;2024-03-17T10:09:43;11.70;81.80
43920;DHT22;29578;51.946;5.874;2024-03-17T10:12:26;11.80;81.80
43920;DHT22;29578;51.946;5.874;2024-03-17T10:15:01;11.90;81.80
43920;DHT22;29578;51.946;5.874;2024-03-17T10:17:31;12.00;81.70
43920;DHT22;29578;51.946;5.874;2024-03-17T10:20:21;12.10;81.70
43920;DHT22;29578;51.946;5.874;2024-03-17T10:23:04;12.20;81.50
43920;DHT22;29578;51.946;5.874;2024-03-17T10:25:31;12.30;81.30
43920;DHT22;29578;51.946;5.874;2024-03-17T10:27:57;12.40;81.30
43920;DHT22;29578;51.946;5.874;2024-03-17T10:30:24;12.50;81.00
43920;DHT22;29578;51.946;5.874;2024-03-17T10:32:59;12.60;80.90
43920;DHT22;29578;51.946;5.874;2024-03-17T10:35:34;12.70;80.80
43920;DHT22;29578;51.946;5.874;2024-03-17T10:38:03;12.80;80.50
43920;DHT22;29578;51.946;5.874;2024-03-17T10:40:31;12.80;80.40
43920;DHT22;29578;51.946;5.874;2024-03-17T10:43:00;12.90;80.40
43920;DHT22;29578;51.946;5.874;2024-03-17T10:45:28;13.10;80.30
43920;DHT22;29578;51.946;5.874;2024-03-17T10:47:59;13.10;80.20
43920;DHT22;29578;51.946;5.874;2024-03-17T10:50:26;13.20;80.20
43920;DHT22;29578;51.946;5.874;2024-03-17T10:52:55;13.20;80.10
43920;DHT22;29578;51.946;5.874;2024-03-17T10:55:25;13.20;80.00
43920;DHT22;29578;51.946;5.874;2024-03-17T10:57:53;13.30;80.00
43920;DHT22;29578;51.946;5.874;2024-03-17T11:00:24;13.30;80.00
43920;DHT22;29578;51.946;5.874;2024-03-17T11:02:52;13.20;80.10
43920;DHT22;29578;51.946;5.874;2024-03-17T11:05:26;13.20;80.10
43920;DHT22;29578;51.946;5.874;2024-03-17T11:07:57;13.20;80.30
43920;DHT22;29578;51.946;5.874;2024-03-17T11:10:34;13.20;80.40
43920;DHT22;29578;51.946;5.874;2024-03-17T11:13:01;13.30;80.40
43920;DHT22;29578;51.946;5.874;2024-03-17T11:15:36;13.30;80.40
43920;DHT22;29578;51.946;5.874;2024-03-17T11:18:27;13.30;80.50
43920;DHT22;29578;51.946;5.874;2024-03-17T11:21:12;13.30;80.60
43920;DHT22;29578;51.946;5.874;2024-03-17T11:23:59;13.20;80.50
43920;DHT22;29578;51.946;5.874;2024-03-17T11:26:30;13.40;80.70
43920;DHT22;29578;51.946;5.874;2024-03-17T11:28:56;13.30;80.80
43920;DHT22;29578;51.946;5.874;2024-03-17T11:31:39;13.30;80.70
43920;DHT22;29578;51.946;5.874;2024-03-17T11:34:28;13.40;80.80
43920;DHT22;29578;51.946;5.874;2024-03-17T11:36:55;13.50;80.70
43920;DHT22;29578;51.946;5.874;2024-03-17T11:39:49;13.40;80.60
43920;DHT22;29578;51.946;5.874;2024-03-17T11:42:16;13.50;80.70
43920;DHT22;29578;51.946;5.874;2024-03-17T11:44:54;13.50;80.60
43920;DHT22;29578;51.946;5.874;2024-03-17T11:47:21;13.50;80.60
43920;DHT22;29578;51.946;5.874;2024-03-17T11:49:47;13.50;80.70
43920;DHT22;29578;51.946;5.874;2024-03-17T11:52:14;13.50;80.70
43920;DHT22;29578;51.946;5.874;2024-03-17T11:54:43;13.50;80.70
43920;DHT22;29578;51.946;5.874;2024-03-17T11:57:10;13.50;80.70
43920;DHT22;29578;51.946;5.874;2024-03-17T11:59:37;13.50;80.50
43920;DHT22;29578;51.946;5.874;2024-03-17T12:02:26;13.60;80.60
43920;DHT22;29578;51.946;5.874;2024-03-17T12:04:57;13.60;80.50
43920;DHT22;29578;51.946;5.874;2024-03-17T12:07:23;13.60;80.40
43920;DHT22;29578;51.946;5.874;2024-03-17T12:09:51;13.50;80.50
43920;DHT22;29578;51.946;5.874;2024-03-17T12:12:20;13.50;80.70
43920;DHT22;29578;51.946;5.874;2024-03-17T12:14:47;13.50;80.70
43920;DHT22;29578;51.946;5.874;2024-03-17T12:17:15;13.50;80.70
43920;DHT22;29578;51.946;5.874;2024-03-17T12:19:45;13.40;80.70
43920;DHT22;29578;51.946;5.874;2024-03-17T12:22:17;13.40;80.70
43920;DHT22;29578;51.946;5.874;2024-03-17T12:24:44;13.40;80.80
43920;DHT22;29578;51.946;5.874;2024-03-17T12:27:17;13.40;80.80
43920;DHT22;29578;51.946;5.874;2024-03-17T12:29:43;13.50;80.80
43920;DHT22;29578;51.946;5.874;2024-03-17T12:32:17;13.50;80.80
43920;DHT22;29578;51.946;5.874;2024-03-17T12:34:44;13.50;80.80
43920;DHT22;29578;51.946;5.874;2024-03-17T12:37:18;13.50;80.70
43920;DHT22;29578;51.946;5.874;2024-03-17T12:39:44;13.50;80.50
43920;DHT22;29578;51.946;5.874;2024-03-17T12:42:13;13.60;80.50
43920;DHT22;29578;51.946;5.874;2024-03-17T12:44:58;13.60;80.60
43920;DHT22;29578;51.946;5.874;2024-03-17T12:47:27;13.60;80.50
43920;DHT22;29578;51.946;5.874;2024-03-17T12:49:54;13.60;80.30
43920;DHT22;29578;51.946;5.874;2024-03-17T12:52:23;13.70;80.50
43920;DHT22;29578;51.946;5.874;2024-03-17T12:54:58;13.70;80.30
43920;DHT22;29578;51.946;5.874;2024-03-17T12:57:44;13.60;80.20
43920;DHT22;29578;51.946;5.874;2024-03-17T13:00:30;13.50;80.40
43920;DHT22;29578;51.946;5.874;2024-03-17T13:02:57;13.50;80.50
43920;DHT22;29578;51.946;5.874;2024-03-17T13:05:23;13.50;80.60
43920;DHT22;29578;51.946;5.874;2024-03-17T13:07:49;13.40;80.60
43920;DHT22;29578;51.946;5.874;2024-03-17T13:10:17;13.50;80.50
43920;DHT22;29578;51.946;5.874;2024-03-17T13:12:44;13.50;80.50
43920;DHT22;29578;51.946;5.874;2024-03-17T13:15:13;13.50;80.50
43920;DHT22;29578;51.946;5.874;2024-03-17T13:17:39;13.50;80.50
43920;DHT22;29578;51.946;5.874;2024-03-17T13:20:07;13.50;80.40
43920;DHT22;29578;51.946;5.874;2024-03-17T13:22:37;13.50;80.40
43920;DHT22;29578;51.946;5.874;2024-03-17T13:25:04;13.50;80.40
43920;DHT22;29578;51.946;5.874;2024-03-17T13:27:31;13.60;80.40
43920;DHT22;29578;51.946;5.874;2024-03-17T13:29:57;13.60;80.30
43920;DHT22;29578;51.946;5.874;2024-03-17T13:32:22;13.60;80.20
43920;DHT22;29578;51.946;5.874;2024-03-17T13:34:48;13.70;80.20
43920;DHT22;29578;51.946;5.874;2024-03-17T13:37:15;13.80;80.20
43920;DHT22;29578;51.946;5.874;2024-03-17T13:39:41;13.70;80.10
43920;DHT22;29578;51.946;5.874;2024-03-17T13:42:08;13.70;80.10
43920;DHT22;29578;51.946;5.874;2024-03-17T13:44:33;13.70;80.10
43920;DHT22;29578;51.946;5.874;2024-03-17T13:46:59;13.60;80.10
43920;DHT22;29578;51.946;5.874;2024-03-17T13:49:29;13.70;80.20
43920;DHT22;29578;51.946;5.874;2024-03-17T13:51:55;13.70;80.20
43920;DHT22;29578;51.946;5.874;2024-03-17T13:54:20;13.70;80.20
43920;DHT22;29578;51.946;5.874;2024-03-17T13:56:48;13.70;80.10
43920;DHT22;29578;51.946;5.874;2024-03-17T13:59:15;13.70;80.20
43920;DHT22;29578;51.946;5.874;2024-03-17T14:01:42;13.70;80.20
43920;DHT22;29578;51.946;5.874;2024-03-17T14:04:17;13.70;80.20
43920;DHT22;29578;51.946;5.874;2024-03-17T14:06:45;13.60;80.80
43920;DHT22;29578;51.946;5.874;2024-03-17T14:09:12;13.80;80.20
43920;DHT22;29578;51.946;5.874;2024-03-17T14:11:38;13.80;80.10
43920;DHT22;29578;51.946;5.874;2024-03-17T14:14:05;13.80;80.20
43920;DHT22;29578;51.946;5.874;2024-03-17T14:16:31;13.70;80.20
43920;DHT22;29578;51.946;5.874;2024-03-17T14:18:58;13.70;80.20
43920;DHT22;29578;51.946;5.874;2024-03-17T14:21:25;13.70;80.20
43920;DHT22;29578;51.946;5.874;2024-03-17T14:23:52;13.70;80.20
43920;DHT22;29578;51.946;5.874;2024-03-17T14:26:18;13.70;80.20
43920;DHT22;29578;51.946;5.874;2024-03-17T14:28:43;13.80;80.20
43920;DHT22;29578;51.946;5.874;2024-03-17T14:31:09;13.80;80.10
43920;DHT22;29578;51.946;5.874;2024-03-17T14:33:34;13.80;80.00
43920;DHT22;29578;51.946;5.874;2024-03-17T14:36:00;13.80;80.00
43920;DHT22;29578;51.946;5.874;2024-03-17T14:38:26;13.80;79.90
43920;DHT22;29578;51.946;5.874;2024-03-17T14:40:52;13.80;79.80
43920;DHT22;29578;51.946;5.874;2024-03-17T14:43:19;13.80;79.90
43920;DHT22;29578;51.946;5.874;2024-03-17T14:45:45;13.80;79.80
43920;DHT22;29578;51.946;5.874;2024-03-17T14:48:11;13.80;79.70
43920;DHT22;29578;51.946;5.874;2024-03-17T14:50:39;13.90;79.70
43920;DHT22;29578;51.946;5.874;2024-03-17T14:53:06;14.00;79.50
43920;DHT22;29578;51.946;5.874;2024-03-17T14:55:32;14.00;79.30
43920;DHT22;29578;51.946;5.874;2024-03-17T14:57:58;14.20;79.30
43920;DHT22;29578;51.946;5.874;2024-03-17T15:00:29;14.20;79.00
43920;DHT22;29578;51.946;5.874;2024-03-17T15:02:57;14.20;78.80
43920;DHT22;29578;51.946;5.874;2024-03-17T15:05:23;14.30;78.80
43920;DHT22;29578;51.946;5.874;2024-03-17T15:08:00;14.30;78.70
43920;DHT22;29578;51.946;5.874;2024-03-17T15:10:45;14.40;78.70
43920;DHT22;29578;51.946;5.874;2024-03-17T15:16:47;14.40;78.70
43920;DHT22;29578;51.946;5.874;2024-03-17T15:23:14;14.30;78.80
43920;DHT22;29578;51.946;5.874;2024-03-17T15:26:08;14.30;79.00
43920;DHT22;29578;51.946;5.874;2024-03-17T15:28:35;14.20;79.00
43920;DHT22;29578;51.946;5.874;2024-03-17T15:31:04;14.10;78.90
43920;DHT22;29578;51.946;5.874;2024-03-17T15:33:30;14.10;78.90
43920;DHT22;29578;51.946;5.874;2024-03-17T15:35:55;14.10;79.00
43920;DHT22;29578;51.946;5.874;2024-03-17T15:38:21;14.10;79.10
43920;DHT22;29578;51.946;5.874;2024-03-17T15:40:48;14.10;79.10
43920;DHT22;29578;51.946;5.874;2024-03-17T15:43:13;14.10;79.10
43920;DHT22;29578;51.946;5.874;2024-03-17T15:45:39;14.20;79.10
43920;DHT22;29578;51.946;5.874;2024-03-17T15:48:07;14.10;79.10
43920;DHT22;29578;51.946;5.874;2024-03-17T15:50:33;14.10;79.10